Ryder, North Dakota
Current Conditions -  °F | °C
As of 5:21 PM on Tuesday 25 Nov 2014 (Local Time) from KMOT Reporting Station
Light Snow Light Snow  
Wind Chill:   Ceiling: 1500
Heat Index: 21°   Visibility: 1mi
Dew Point: 18°   Wind: 17mph
Humidity: 88%   Direction: 30°NNE
Pressure: 29.86"   Gusts: NA
Location:  47.92°N, 101.68°W
Report Text: KMOT 252321Z 03015KT 1SM -SN BR VV015 M06/M08 A2986 RMK AO2 PRESRR P0000 T10611078
Loading
Personal Weather Stations






























Interactive Weather Map New forecast layout! Learn more

10-Day Weather Forecast

Advertisements
Track Severe Weather on mobile